Time;durP1;ratioP1;P1;durP2;ratioP2;P2;SDS_P1;SDS_P2;PMS_P1;PMS_P2;Temp;Humidity;BMP_temperature;BMP_pressure;BME280_temperature;BME280_humidity;BME280_pressure;Samples;Min_cycle;Max_cycle;Signal;HPM_P1;HPM_P2
2024/01/18 00:01:03;;;;;;;3.70;2.40;;;;;;;17.93;32.05;98664.22;4231630;28;20122;-51
2024/01/18 00:03:04;;;;;;;4.32;2.70;;;;;;;17.89;32.26;98651.22;4231799;28;20075;-50
2024/01/18 00:05:07;;;;;;;3.55;2.30;;;;;;;17.89;31.95;98655.72;4231675;28;20488;-52
2024/01/18 00:07:09;;;;;;;3.80;2.65;;;;;;;17.87;31.97;98676.28;4231480;28;20063;-49
2024/01/18 00:09:10;;;;;;;4.00;2.50;;;;;;;17.84;31.81;98677.44;4231561;28;20040;-50
2024/01/18 00:11:12;;;;;;;4.20;2.40;;;;;;;17.87;31.81;98677.13;4230928;28;20250;-50
2024/01/18 00:13:14;;;;;;;4.75;2.50;;;;;;;17.87;32.00;98676.28;4231320;28;20039;-51
2024/01/18 00:15:16;;;;;;;;;;;;;;;17.90;31.87;98683.97;4231791;28;20035;-50
2024/01/18 00:17:17;;;;;;;3.60;2.20;;;;;;;17.88;31.96;98680.63;4231395;28;19926;-48
2024/01/18 00:19:19;;;;;;;3.90;2.30;;;;;;;17.91;31.88;98687.47;4231633;28;20126;-51
2024/01/18 00:21:21;;;;;;;4.18;2.55;;;;;;;17.92;32.09;98691.78;4231623;28;20047;-49
2024/01/18 00:23:23;;;;;;;3.47;2.00;;;;;;;17.91;32.12;98693.63;4231480;27;20510;-52
2024/01/18 00:25:24;;;;;;;4.10;2.63;;;;;;;17.90;31.92;98699.94;4231435;28;20051;-51
2024/01/18 00:27:26;;;;;;;4.05;2.20;;;;;;;17.89;31.81;98711.56;4230862;28;20039;-51
2024/01/18 00:29:28;;;;;;;3.60;2.00;;;;;;;17.87;31.74;98713.50;4230152;28;20071;-51
2024/01/18 00:31:29;;;;;;;4.30;2.10;;;;;;;17.85;32.17;98711.00;4231223;28;20047;-49
2024/01/18 00:33:31;;;;;;;3.15;1.77;;;;;;;17.88;31.81;98710.69;4231386;28;20456;-51
2024/01/18 00:35:33;;;;;;;3.15;1.83;;;;;;;17.88;32.06;98702.72;4231536;28;20044;-52
2024/01/18 00:37:35;;;;;;;3.78;2.10;;;;;;;17.91;31.90;98706.94;4231027;28;20118;-50
2024/01/18 00:39:41;;;;;;;3.63;1.92;;;;;;;17.91;31.99;98708.72;4231046;28;20069;-52
2024/01/18 00:41:42;;;;;;;3.50;2.17;;;;;;;17.92;32.06;98703.25;4230842;27;20051;-52
2024/01/18 00:43:44;;;;;;;4.10;2.00;;;;;;;17.91;31.66;98698.09;4230940;28;20071;-51
2024/01/18 00:45:46;;;;;;;2.95;1.88;;;;;;;17.86;31.68;98694.06;4230980;28;20553;-50
2024/01/18 00:47:47;;;;;;;3.45;1.80;;;;;;;17.85;31.87;98702.19;4231110;28;20126;-52
2024/01/18 00:49:49;;;;;;;3.50;2.05;;;;;;;17.82;31.84;98700.66;4230845;28;20123;-51
2024/01/18 00:51:51;;;;;;;3.22;1.80;;;;;;;17.77;32.04;98697.63;4231106;28;20058;-52
2024/01/18 00:53:52;;;;;;;3.20;1.90;;;;;;;17.75;31.96;98694.28;4231224;28;20047;-51
2024/01/18 00:55:54;;;;;;;3.15;2.00;;;;;;;17.76;31.61;98698.63;4230516;28;20448;-49
2024/01/18 00:57:56;;;;;;;3.63;1.88;;;;;;;17.79;31.73;98703.66;4230799;28;20122;-52
2024/01/18 00:59:58;;;;;;;3.95;1.90;;;;;;;17.81;31.66;98706.16;4230853;28;20136;-51
2024/01/18 01:02:00;;;;;;;2.75;1.80;;;;;;;17.81;31.78;98701.69;4230627;28;20055;-51
2024/01/18 01:04:02;;;;;;;3.50;2.10;;;;;;;17.82;31.67;98703.31;4230907;28;20082;-51
2024/01/18 01:06:04;;;;;;;3.30;2.00;;;;;;;17.82;31.79;98703.31;4230713;28;20044;-51
2024/01/18 01:08:06;;;;;;;3.70;1.92;;;;;;;17.80;31.86;98704.47;4230600;28;20043;-51
2024/01/18 01:10:08;;;;;;;2.85;1.77;;;;;;;17.80;31.81;98707.97;4230445;28;20438;-52
2024/01/18 01:12:09;;;;;;;;;;;;;;;17.79;31.62;98697.47;4230986;28;20048;-49
2024/01/18 01:14:11;;;;;;;3.43;2.00;;;;;;;17.75;31.54;98691.63;4230826;28;19927;-51
2024/01/18 01:16:13;;;;;;;2.47;1.67;;;;;;;17.75;31.70;98686.31;4230609;28;20517;-51
2024/01/18 01:18:14;;;;;;;3.10;1.90;;;;;;;17.71;31.50;98685.75;4230730;28;20043;-52
2024/01/18 01:20:16;;;;;;;3.45;1.90;;;;;;;17.71;31.56;98691.09;4230572;28;20050;-51
2024/01/18 01:22:18;;;;;;;3.28;2.08;;;;;;;17.70;31.62;98686.78;4229784;28;20040;-50
2024/01/18 01:24:20;;;;;;;2.83;1.70;;;;;;;17.70;31.61;98689.44;4230201;28;20039;-51
2024/01/18 01:26:21;;;;;;;3.08;1.73;;;;;;;17.69;31.57;98685.09;4230472;28;20521;-52
2024/01/18 01:28:23;;;;;;;3.00;1.77;;;;;;;17.71;31.61;98680.44;4230572;28;20048;-51
2024/01/18 01:30:24;;;;;;;2.95;1.80;;;;;;;17.71;31.37;98685.75;4230188;28;20046;-51
2024/01/18 01:32:26;;;;;;;3.03;1.88;;;;;;;17.72;31.32;98676.81;4230271;28;20051;-49
2024/01/18 01:34:28;;;;;;;2.53;1.60;;;;;;;17.71;31.42;98682.28;4230593;28;20426;-51
2024/01/18 01:36:29;;;;;;;2.90;1.85;;;;;;;17.69;31.35;98682.44;4230519;28;20350;-48
2024/01/18 01:38:31;;;;;;;2.50;1.48;;;;;;;17.66;31.43;98688.03;4230535;28;20105;-51
2024/01/18 01:40:33;;;;;;;;;;;;;;;17.66;31.44;98700.53;4229563;28;20048;-52
2024/01/18 01:42:35;;;;;;;2.77;1.83;;;;;;;17.64;31.47;98689.19;4230460;28;20362;-51
2024/01/18 01:44:36;;;;;;;2.45;1.60;;;;;;;17.66;31.40;98704.00;4229209;28;20048;-48
2024/01/18 01:46:38;;;;;;;2.30;1.60;;;;;;;17.66;31.70;98698.69;4230348;28;20039;-49
2024/01/18 01:48:39;;;;;;;2.83;1.80;;;;;;;17.67;31.50;98699.53;4230474;28;20039;-51
2024/01/18 01:50:41;;;;;;;2.78;1.75;;;;;;;17.68;31.56;98693.22;4230458;28;20128;-50
2024/01/18 01:52:44;;;;;;;3.00;1.80;;;;;;;17.69;31.39;98705.53;4230210;28;20471;-51
2024/01/18 01:54:47;;;;;;;2.42;1.70;;;;;;;17.69;31.31;98713.50;4228619;28;20044;-51
2024/01/18 01:56:51;;;;;;;3.13;1.80;;;;;;;17.67;31.40;98713.66;4230401;28;20051;-50
2024/01/18 01:58:53;;;;;;;2.97;1.75;;;;;;;17.66;31.53;98716.47;4230094;28;20071;-51
2024/01/18 02:00:55;;;;;;;3.05;1.92;;;;;;;17.65;31.53;98728.09;4230268;28;20067;-52
2024/01/18 02:02:57;;;;;;;3.53;1.90;;;;;;;17.64;31.55;98729.06;4230135;28;20487;-52
2024/01/18 02:04:58;;;;;;;3.58;2.00;;;;;;;17.65;31.60;98730.75;4230518;28;20046;-50
2024/01/18 02:07:00;;;;;;;3.25;2.00;;;;;;;17.65;31.64;98730.75;4230392;28;20093;-52
2024/01/18 02:09:03;;;;;;;3.55;2.10;;;;;;;17.64;31.51;98735.19;4229911;28;20135;-51
2024/01/18 02:11:06;;;;;;;2.85;1.83;;;;;;;17.59;31.21;98710.06;4230210;28;20063;-48
2024/01/18 02:13:08;;;;;;;3.30;1.95;;;;;;;17.67;31.23;98731.44;4230236;28;20068;-52
2024/01/18 02:15:11;;;;;;;3.40;2.05;;;;;;;17.66;31.28;98724.44;4230189;28;20040;-51
2024/01/18 02:17:12;;;;;;;3.70;2.30;;;;;;;17.66;31.19;98724.44;4230149;28;20513;-51
2024/01/18 02:19:14;;;;;;;3.50;2.13;;;;;;;17.63;31.51;98736.22;4230235;28;20048;-51
2024/01/18 02:21:16;;;;;;;3.45;2.05;;;;;;;17.64;31.51;98729.06;4230113;28;20050;-51
2024/01/18 02:23:18;;;;;;;;;;;;;;;17.62;31.34;98729.22;4230260;28;20043;-51
2024/01/18 02:25:22;;;;;;;2.90;2.00;;;;;;;17.60;31.66;98728.53;4230071;28;19920;-50
2024/01/18 02:27:24;;;;;;;3.30;1.98;;;;;;;17.59;31.33;98724.19;4230053;28;20055;-51
2024/01/18 02:29:25;;;;;;;3.40;2.05;;;;;;;17.59;31.40;98724.19;4230059;28;20048;-50
2024/01/18 02:31:27;;;;;;;3.50;2.00;;;;;;;17.59;31.27;98724.19;4230137;28;20063;-51
2024/01/18 02:33:28;;;;;;;3.17;2.08;;;;;;;17.61;31.38;98726.72;4230279;28;20168;-48
2024/01/18 02:35:31;;;;;;;3.60;2.20;;;;;;;17.60;31.38;98725.88;4233157;28;20498;-51
2024/01/18 02:37:33;;;;;;;3.58;2.25;;;;;;;17.62;31.31;98734.53;4232937;28;20058;-52
2024/01/18 02:39:35;;;;;;;2.85;1.90;;;;;;;17.63;31.46;98744.19;4232935;28;20044;-52
2024/01/18 02:41:37;;;;;;;3.47;1.95;;;;;;;17.65;31.22;98757.31;4233113;27;20051;-51
2024/01/18 02:43:40;;;;;;;3.33;2.00;;;;;;;17.63;31.44;98752.16;4233124;28;20051;-52
2024/01/18 02:45:42;;;;;;;3.38;2.08;;;;;;;17.61;31.23;98759.44;4232995;28;20044;-52
2024/01/18 02:47:43;;;;;;;3.03;2.03;;;;;;;17.58;31.55;98756.25;4233027;28;20059;-51
2024/01/18 02:49:45;;;;;;;3.42;2.22;;;;;;;17.56;31.34;98759.06;4232751;28;20051;-52
2024/01/18 02:51:47;;;;;;;3.88;2.22;;;;;;;17.53;31.38;98760.19;4232496;28;20128;-50
2024/01/18 02:53:48;;;;;;;3.72;2.05;;;;;;;17.54;31.37;98767.16;4233005;28;20370;-52
2024/01/18 02:55:50;;;;;;;3.05;2.05;;;;;;;17.55;31.26;98752.06;4232899;28;20054;-51
2024/01/18 02:57:53;;;;;;;3.55;2.25;;;;;;;17.53;30.96;98751.38;4232593;28;20044;-51
2024/01/18 02:59:55;;;;;;;3.42;2.10;;;;;;;17.53;31.22;98754.03;4232635;28;20039;-52
2024/01/18 03:01:57;;;;;;;3.20;2.03;;;;;;;17.54;31.33;98755.69;4232845;28;20490;-51
2024/01/18 03:03:58;;;;;;;3.63;2.20;;;;;;;17.52;31.29;98747.88;4232559;28;20175;-52
2024/01/18 03:06:00;;;;;;;2.78;1.80;;;;;;;17.51;31.32;98743.53;4231142;28;20081;-47
2024/01/18 03:08:02;;;;;;;3.33;1.95;;;;;;;17.54;31.26;98753.03;4232820;28;20124;-51
2024/01/18 03:10:05;;;;;;;3.15;2.03;;;;;;;17.53;31.23;98756.69;4232572;28;20044;-52
2024/01/18 03:12:07;;;;;;;3.10;2.00;;;;;;;17.50;31.10;98743.69;4232624;27;20039;-52
2024/01/18 03:14:09;;;;;;;2.90;2.08;;;;;;;17.48;31.28;98751.81;4232644;28;20418;-52
2024/01/18 03:16:12;;;;;;;2.50;1.80;;;;;;;17.48;31.47;98756.28;4231392;28;20126;-50
2024/01/18 03:18:13;;;;;;;3.15;1.85;;;;;;;17.49;31.27;98761.44;4232520;28;20043;-50
2024/01/18 03:20:15;;;;;;;3.10;1.80;;;;;;;17.49;31.13;98768.59;4232125;27;20047;-52
2024/01/18 03:22:17;;;;;;;2.40;1.60;;;;;;;17.46;31.13;98766.22;4232929;28;20093;-50
2024/01/18 03:24:18;;;;;;;2.90;2.00;;;;;;;17.47;31.02;98775.88;4232526;28;20067;-50
2024/01/18 03:26:20;;;;;;;2.80;1.75;;;;;;;17.49;31.32;98780.06;4232377;28;20508;-48
2024/01/18 03:28:21;;;;;;;3.15;1.95;;;;;;;17.48;31.32;98777.56;4232228;28;20086;-52
2024/01/18 03:30:23;;;;;;;3.13;1.70;;;;;;;17.47;31.15;98775.88;4232405;28;20048;-51
2024/01/18 03:32:25;;;;;;;2.70;1.63;;;;;;;17.44;31.28;98786.78;4231941;28;20043;-52
2024/01/18 03:34:27;;;;;;;2.88;1.80;;;;;;;17.44;31.22;98787.63;4231116;28;20047;-50
2024/01/18 03:36:29;;;;;;;3.35;1.77;;;;;;;17.47;31.31;98797.13;4231957;28;20456;-48
2024/01/18 03:38:30;;;;;;;2.80;1.70;;;;;;;17.46;31.34;98806.09;4232287;28;20130;-52
2024/01/18 03:40:32;;;;;;;2.83;1.58;;;;;;;17.46;31.28;98806.09;4232239;28;20051;-51
2024/01/18 03:42:34;;;;;;;2.33;1.50;;;;;;;17.47;31.28;98802.44;4232225;28;20048;-51
2024/01/18 03:44:36;;;;;;;2.20;1.40;;;;;;;17.47;31.15;98805.94;4231677;28;20050;-51
2024/01/18 03:46:38;;;;;;;2.35;1.42;;;;;;;17.50;31.31;98816.28;4230168;28;20101;-51
2024/01/18 03:48:39;;;;;;;2.50;1.50;;;;;;;17.51;31.04;98828.59;4232137;28;20123;-51
2024/01/18 03:50:41;;;;;;;2.13;1.25;;;;;;;17.50;31.12;98823.44;4231501;28;20051;-50
2024/01/18 03:52:43;;;;;;;2.33;1.40;;;;;;;17.47;31.22;98837.81;4230738;28;20063;-51
2024/01/18 03:54:48;;;;;;;2.60;1.58;;;;;;;17.46;31.29;98838.84;4231848;28;20071;-50
2024/01/18 03:56:49;;;;;;;2.65;1.65;;;;;;;17.46;31.19;98840.63;4231822;28;20047;-51
2024/01/18 03:58:51;;;;;;;2.15;1.20;;;;;;;17.47;31.44;98850.28;4231726;28;20563;-51
2024/01/18 04:00:53;;;;;;;2.25;1.40;;;;;;;17.47;31.39;98852.94;4231817;28;20059;-50
2024/01/18 04:02:55;;;;;;;2.17;1.33;;;;;;;17.49;31.31;98853.66;4231693;28;20120;-50
2024/01/18 04:04:56;;;;;;;2.40;1.33;;;;;;;17.49;31.39;98858.97;4231490;28;20044;-50
2024/01/18 04:06:58;;;;;;;2.10;1.40;;;;;;;17.49;31.18;98861.63;4230512;28;20040;-52
2024/01/18 04:09:00;;;;;;;2.03;1.33;;;;;;;17.49;31.31;98864.28;4231612;28;20043;-51
2024/01/18 04:11:02;;;;;;;;;;;;;;;17.49;31.37;98867.75;4231970;28;20472;-48
2024/01/18 04:13:03;;;;;;;2.13;1.40;;;;;;;17.47;30.99;98866.22;4231504;28;19920;-50
2024/01/18 04:15:08;;;;;;;1.90;1.10;;;;;;;17.50;30.93;98868.63;4231271;28;20377;-49
2024/01/18 04:17:13;;;;;;;1.73;1.10;;;;;;;17.48;31.30;98868.75;4231466;28;20089;-51
2024/01/18 04:19:15;;;;;;;1.92;1.13;;;;;;;17.47;31.16;98871.53;4231043;28;20047;-50
2024/01/18 04:21:17;;;;;;;1.38;1.10;;;;;;;17.46;31.39;98880.50;4231482;28;20556;-49
2024/01/18 04:23:19;;;;;;;2.25;1.30;;;;;;;17.45;31.12;98889.44;4230300;28;20132;-47
2024/01/18 04:25:21;;;;;;;2.08;1.30;;;;;;;17.47;31.11;98893.63;4231279;28;20051;-48
2024/01/18 04:27:22;;;;;;;2.35;1.23;;;;;;;17.50;31.13;98897.84;4231252;28;20044;-48
2024/01/18 04:29:26;;;;;;;2.20;1.27;;;;;;;17.49;31.20;98899.66;4231282;28;20476;-48
2024/01/18 04:31:28;;;;;;;2.17;1.15;;;;;;;17.49;31.26;98897.00;4231220;28;20047;-46
2024/01/18 04:33:29;;;;;;;2.47;1.30;;;;;;;17.51;31.17;98912.78;4230844;28;20071;-48
2024/01/18 04:35:31;;;;;;;2.28;1.35;;;;;;;17.49;31.20;98914.78;4231334;28;20513;-48
2024/01/18 04:37:33;;;;;;;2.45;1.38;;;;;;;17.49;31.04;98926.22;4231163;28;20495;-46
2024/01/18 04:39:35;;;;;;;2.30;1.40;;;;;;;17.50;30.95;98930.56;4231110;28;20415;-48
2024/01/18 04:41:36;;;;;;;2.53;1.35;;;;;;;17.49;31.19;98938.69;4231334;28;20490;-48
2024/01/18 04:43:38;;;;;;;1.98;1.30;;;;;;;17.50;30.93;98945.69;4231263;28;20489;-48
2024/01/18 04:45:40;;;;;;;2.20;1.30;;;;;;;17.49;31.04;98951.97;4230956;28;20047;-47
2024/01/18 04:47:42;;;;;;;3.28;1.70;;;;;;;17.47;31.27;98952.09;4230584;28;20044;-48
2024/01/18 04:49:44;;;;;;;2.30;1.52;;;;;;;17.49;31.28;98965.28;4230964;28;20060;-48
2024/01/18 04:51:45;;;;;;;2.50;1.48;;;;;;;17.49;31.04;98973.25;4230926;28;20071;-49
2024/01/18 04:53:47;;;;;;;2.60;1.60;;;;;;;17.49;31.21;98979.38;4231185;28;20089;-48
2024/01/18 04:55:49;;;;;;;3.22;1.80;;;;;;;17.49;31.10;98986.53;4230788;28;20051;-49
2024/01/18 04:57:51;;;;;;;3.00;1.73;;;;;;;17.50;31.23;98986.38;4230655;28;20047;-47
2024/01/18 04:59:53;;;;;;;2.40;1.50;;;;;;;17.52;31.00;98999.53;4231008;28;20039;-46
2024/01/18 05:01:55;;;;;;;3.67;1.80;;;;;;;17.51;30.93;99005.81;4230606;28;20483;-48
2024/01/18 05:03:56;;;;;;;3.20;1.60;;;;;;;17.48;30.87;99003.47;4230925;28;20047;-48
2024/01/18 05:05:58;;;;;;;3.00;1.75;;;;;;;17.41;30.84;99011.13;4230640;28;20043;-46
2024/01/18 05:08:00;;;;;;;3.10;1.70;;;;;;;17.44;30.99;99020.66;4230698;28;20051;-50
2024/01/18 05:10:06;;;;;;;2.70;1.65;;;;;;;17.40;30.99;99017.47;4230722;28;20077;-50
2024/01/18 05:12:07;;;;;;;3.55;1.83;;;;;;;17.42;30.83;99035.91;4230795;28;20058;-49
2024/01/18 05:14:13;;;;;;;2.97;1.60;;;;;;;17.43;31.11;99040.25;4230541;28;20127;-48
2024/01/18 05:16:14;;;;;;;3.42;1.83;;;;;;;17.45;30.84;99043.59;4229237;28;20043;-50
2024/01/18 05:18:16;;;;;;;3.65;1.98;;;;;;;17.46;30.87;99039.97;4230839;28;20525;-50
2024/01/18 05:20:18;;;;;;;4.68;2.10;;;;;;;17.46;31.06;99050.59;4229333;28;20101;-50
2024/01/18 05:22:19;;;;;;;3.80;1.95;;;;;;;17.46;30.57;99042.63;4230690;28;20116;-50
2024/01/18 05:24:21;;;;;;;3.78;2.40;;;;;;;17.45;30.24;99048.91;4230460;28;20038;-49
2024/01/18 05:26:23;;;;;;;3.70;2.22;;;;;;;17.43;30.67;99057.03;4229387;28;20073;-49
2024/01/18 05:28:24;;;;;;;4.32;2.40;;;;;;;17.39;30.83;99053.81;4230304;28;20077;-51
2024/01/18 05:30:26;;;;;;;3.97;2.40;;;;;;;17.43;30.83;99072.16;4230462;28;20418;-49
2024/01/18 05:32:28;;;;;;;4.47;2.80;;;;;;;17.41;30.97;99072.25;4230332;28;20051;-49
2024/01/18 05:34:29;;;;;;;4.30;2.80;;;;;;;17.41;30.70;99077.56;4230268;28;20052;-49
2024/01/18 05:36:31;;;;;;;4.90;3.10;;;;;;;17.40;30.75;99070.59;4230491;28;20047;-49
2024/01/18 05:38:33;;;;;;;4.70;3.10;;;;;;;17.40;30.58;99082.06;4229089;28;20046;-48
2024/01/18 05:40:42;;;;;;;4.97;3.17;;;;;;;17.41;30.63;99085.56;4230372;28;20043;-48
2024/01/18 05:42:44;;;;;;;;;;;;;;;17.43;30.59;99093.41;4230985;28;20044;-50
2024/01/18 05:44:47;;;;;;;4.40;3.03;;;;;;;17.41;30.68;99104.16;4230503;28;19954;-51
2024/01/18 05:46:48;;;;;;;5.00;3.00;;;;;;;17.42;30.69;99105.00;4230277;28;20802;-50
2024/01/18 05:48:50;;;;;;;5.63;3.40;;;;;;;17.43;30.81;99107.53;4230372;28;20082;-52
2024/01/18 05:50:52;;;;;;;5.10;3.33;;;;;;;17.42;30.94;99116.47;4230234;28;20043;-49
2024/01/18 05:52:53;;;;;;;5.55;3.80;;;;;;;17.40;30.66;99108.63;4230225;28;20050;-52
2024/01/18 05:54:56;;;;;;;5.30;3.67;;;;;;;17.38;30.69;99110.59;4230595;28;20050;-50
2024/01/18 05:56:57;;;;;;;5.53;3.63;;;;;;;17.39;30.72;99117.59;4230367;28;20089;-52
2024/01/18 05:58:59;;;;;;;5.28;3.25;;;;;;;17.40;30.60;99131.72;4230060;28;20056;-52
2024/01/18 06:01:01;;;;;;;5.53;3.40;;;;;;;17.40;30.64;99129.91;4230048;28;20044;-52
2024/01/18 06:03:03;;;;;;;5.90;3.72;;;;;;;17.40;30.64;99132.56;4230389;28;20047;-51
2024/01/18 06:05:06;;;;;;;5.15;3.53;;;;;;;17.43;30.55;99138.59;4230314;28;20452;-48
2024/01/18 06:07:08;;;;;;;6.40;4.00;;;;;;;17.42;30.51;99140.38;4230021;28;20075;-49
2024/01/18 06:09:09;;;;;;;5.95;3.85;;;;;;;17.43;30.51;99147.38;4231818;28;20039;-51
2024/01/18 06:11:11;;;;;;;5.32;3.35;;;;;;;17.45;30.69;99148.09;4233683;28;20093;-49
2024/01/18 06:13:13;;;;;;;5.10;3.60;;;;;;;17.46;30.53;99156.91;4233426;28;20035;-52
2024/01/18 06:15:14;;;;;;;6.05;3.53;;;;;;;17.47;30.63;99166.56;4233212;28;20486;-50
2024/01/18 06:17:16;;;;;;;5.15;3.47;;;;;;;17.47;30.68;99179.84;4233468;28;20116;-51
2024/01/18 06:19:18;;;;;;;4.95;3.67;;;;;;;17.45;30.81;99181.78;4233594;28;20051;-50
2024/01/18 06:21:21;;;;;;;5.70;3.90;;;;;;;17.45;30.76;99189.75;4233416;28;20039;-53
2024/01/18 06:23:22;;;;;;;5.57;3.50;;;;;;;17.46;30.96;99197.63;4233428;28;20050;-52
2024/01/18 06:25:25;;;;;;;5.10;3.47;;;;;;;17.46;30.80;99210.91;4233562;28;20070;-51
2024/01/18 06:27:26;;;;;;;5.38;3.60;;;;;;;17.44;30.73;99207.53;4232992;28;20050;-51
2024/01/18 06:29:30;;;;;;;5.45;3.70;;;;;;;17.48;30.53;99216.91;4231598;28;20545;-49
2024/01/18 06:31:32;;;;;;;5.63;3.72;;;;;;;17.47;30.74;99225.03;4233296;28;20067;-51
2024/01/18 06:33:33;;;;;;;5.50;3.67;;;;;;;17.46;30.66;99226.00;4233098;28;20074;-49
2024/01/18 06:35:35;;;;;;;5.85;3.60;;;;;;;17.49;30.56;99239.03;4233165;28;20097;-49
2024/01/18 06:37:37;;;;;;;4.82;3.50;;;;;;;17.47;30.73;99247.13;4233241;28;20047;-49
2024/01/18 06:39:39;;;;;;;5.78;3.85;;;;;;;17.46;30.60;99255.25;4232948;28;20065;-51
2024/01/18 06:41:41;;;;;;;5.72;3.92;;;;;;;17.44;30.60;99257.19;4233147;28;20528;-48
2024/01/18 06:43:43;;;;;;;;;;;;;;;17.41;30.65;99268.91;4231673;28;20130;-51
2024/01/18 06:45:45;;;;;;;5.38;3.65;;;;;;;17.37;30.73;99272.84;4232873;28;20006;-51
2024/01/18 06:47:47;;;;;;;5.55;3.67;;;;;;;17.42;30.70;99285.72;4232947;28;20063;-50
2024/01/18 06:49:53;;;;;;;5.43;3.58;;;;;;;17.42;30.61;99288.38;4232751;28;20123;-54
2024/01/18 06:52:00;;;;;;;5.75;3.88;;;;;;;17.43;30.51;99295.38;4233094;28;20048;-52
2024/01/18 06:54:02;;;;;;;5.97;3.72;;;;;;;17.44;30.76;99305.03;4232700;28;20056;-51
2024/01/18 06:56:10;;;;;;;5.45;3.90;;;;;;;17.44;30.66;99319.16;4232638;28;20043;-50
2024/01/18 06:58:12;;;;;;;6.57;3.80;;;;;;;17.44;30.79;99315.66;4232190;27;20051;-53
2024/01/18 07:00:16;;;;;;;5.43;3.83;;;;;;;17.46;30.55;99321.69;4232953;28;20059;-50
2024/01/18 07:02:18;;;;;;;5.65;3.85;;;;;;;17.44;30.75;99328.94;4232825;28;20444;-50
2024/01/18 07:04:20;;;;;;;5.80;3.38;;;;;;;17.43;31.16;99329.94;4232508;28;20121;-51
2024/01/18 07:06:21;;;;;;;5.20;3.65;;;;;;;17.43;30.56;99337.91;4232804;28;20494;-47
2024/01/18 07:08:24;;;;;;;6.50;3.50;;;;;;;17.42;30.70;99330.91;4232568;28;20466;-50
2024/01/18 07:10:25;;;;;;;5.28;3.60;;;;;;;17.44;30.84;99345.75;4232529;28;20050;-50
2024/01/18 07:12:27;;;;;;;5.43;3.42;;;;;;;17.44;30.83;99347.53;4231183;28;20079;-49
2024/01/18 07:14:30;;;;;;;5.05;3.28;;;;;;;17.44;30.62;99356.38;4232658;28;20529;-50
2024/01/18 07:16:35;;;;;;;5.07;3.40;;;;;;;17.45;30.81;99360.72;4232266;28;20054;-51
2024/01/18 07:18:37;;;;;;;6.50;3.60;;;;;;;17.46;30.67;99369.53;4232298;28;20047;-49
2024/01/18 07:20:38;;;;;;;5.63;3.50;;;;;;;17.47;30.79;99376.53;4232068;28;20096;-53
2024/01/18 07:22:40;;;;;;;5.63;3.80;;;;;;;17.46;30.61;99380.16;4232315;28;20043;-50
2024/01/18 07:24:42;;;;;;;5.70;3.60;;;;;;;17.45;30.76;99386.44;4232247;28;20048;-51
2024/01/18 07:26:48;;;;;;;5.82;3.90;;;;;;;17.41;30.65;99388.53;4231948;28;20174;-50
2024/01/18 07:28:50;;;;;;;;;;;;;;;17.42;30.61;99402.66;4232473;28;20417;-49
2024/01/18 07:30:52;;;;;;;6.33;4.10;;;;;;;17.37;30.58;99411.84;4232160;28;19920;-51
2024/01/18 07:32:53;;;;;;;5.80;3.30;;;;;;;17.41;30.82;99417.75;4232319;28;20799;-53
2024/01/18 07:34:56;;;;;;;6.18;3.95;;;;;;;17.42;30.83;99422.09;4232442;28;20048;-52
2024/01/18 07:36:58;;;;;;;6.53;4.55;;;;;;;17.43;30.64;99425.63;4232124;28;20044;-50
2024/01/18 07:39:05;;;;;;;6.63;4.03;;;;;;;17.43;30.60;99418.47;4230892;28;20511;-50
2024/01/18 07:41:07;;;;;;;6.82;4.13;;;;;;;17.43;30.76;99423.78;4231701;28;20088;-50
2024/01/18 07:43:08;;;;;;;5.78;4.00;;;;;;;17.43;30.73;99426.44;4231966;28;20043;-51
2024/01/18 07:45:14;;;;;;;6.82;4.43;;;;;;;17.43;30.37;99439.75;4232025;28;20044;-52
2024/01/18 07:47:18;;;;;;;5.85;4.40;;;;;;;17.39;30.51;99448.97;4232011;28;20047;-50
2024/01/18 07:49:20;;;;;;;6.35;4.10;;;;;;;17.40;30.45;99454.13;4232001;28;20047;-52
2024/01/18 07:51:22;;;;;;;6.72;4.25;;;;;;;17.40;30.65;99472.75;4231971;28;20059;-50
2024/01/18 07:53:24;;;;;;;;;;;;;;;17.38;30.52;99479.16;4232103;28;20510;-51
2024/01/18 07:55:30;;;;;;;5.85;4.10;;;;;;;17.38;30.62;99473.84;4231796;28;20424;-49
2024/01/18 07:57:33;;;;;;;6.25;4.18;;;;;;;17.39;30.47;99468.38;4231477;28;20426;-52
2024/01/18 07:59:36;;;;;;;6.30;4.55;;;;;;;17.39;30.60;99480.84;4231586;28;20051;-54
2024/01/18 08:01:38;;;;;;;6.93;4.25;;;;;;;17.44;30.67;99491.06;4231833;28;20131;-51
2024/01/18 08:03:41;;;;;;;6.70;4.43;;;;;;;17.47;30.36;99502.28;4231629;28;20043;-51
2024/01/18 08:05:47;;;;;;;6.57;4.50;;;;;;;17.47;30.60;99498.78;4231742;28;20075;-51
2024/01/18 08:07:54;;;;;;;6.90;4.57;;;;;;;17.46;30.70;99503.28;4231560;28;20131;-50
2024/01/18 08:09:56;;;;;;;6.78;4.30;;;;;;;17.43;30.71;99506.19;4231565;28;20046;-49
2024/01/18 08:11:58;;;;;;;8.70;5.50;;;;;;;17.38;30.67;99517.19;4231399;28;20423;-51
2024/01/18 08:13:59;;;;;;;;;;;;;;;17.35;30.73;99522.78;4231922;28;20043;-47
2024/01/18 08:16:01;;;;;;;6.38;4.13;;;;;;;17.36;30.59;99531.59;4231457;28;20393;-49
2024/01/18 08:18:07;;;;;;;6.22;4.45;;;;;;;17.38;30.75;99537.63;4231279;27;20130;-53
2024/01/18 08:20:12;;;;;;;6.43;4.40;;;;;;;17.40;30.50;99541.84;4231375;28;20356;-51
2024/01/18 08:22:15;;;;;;;6.35;4.40;;;;;;;17.43;30.75;99548.72;4231578;28;20109;-46
2024/01/18 08:24:16;;;;;;;7.00;4.50;;;;;;;17.44;30.66;99555.72;4231400;28;20066;-46
2024/01/18 08:26:20;;;;;;;6.63;4.90;;;;;;;17.44;30.62;99565.50;4229694;28;20043;-49
2024/01/18 08:28:22;;;;;;;7.40;4.75;;;;;;;17.40;30.51;99571.06;4231285;28;20050;-48
2024/01/18 08:30:25;;;;;;;6.85;4.68;;;;;;;17.42;30.70;99575.44;4231150;28;20403;-52
2024/01/18 08:32:31;;;;;;;7.13;4.80;;;;;;;17.41;30.48;99577.22;4230939;28;20418;-49
2024/01/18 08:34:35;;;;;;;6.88;4.70;;;;;;;17.40;30.76;99581.72;4231315;28;20086;-51
2024/01/18 08:36:39;;;;;;;6.43;4.82;;;;;;;17.41;30.46;99590.50;4231257;28;20067;-52
2024/01/18 08:38:40;;;;;;;6.50;4.50;;;;;;;17.44;30.42;99595.59;4230111;28;20043;-52
2024/01/18 08:40:42;;;;;;;6.93;4.50;;;;;;;17.46;30.59;99606.09;4230667;28;20552;-51
2024/01/18 08:42:45;;;;;;;7.10;4.43;;;;;;;17.51;30.47;99614.53;4231189;28;20039;-49
2024/01/18 08:44:47;;;;;;;8.38;4.95;;;;;;;17.52;30.47;99625.03;4231102;28;20134;-52
2024/01/18 08:46:49;;;;;;;6.47;4.60;;;;;;;17.52;30.31;99625.03;4231023;28;20051;-50
2024/01/18 08:48:51;;;;;;;5.95;4.55;;;;;;;17.53;30.50;99625.88;4230751;28;20046;-51
2024/01/18 08:50:52;;;;;;;6.38;4.50;;;;;;;17.54;30.32;99643.53;4231048;28;20049;-52
2024/01/18 08:52:56;;;;;;;7.70;4.95;;;;;;;17.54;30.33;99646.19;4230782;28;20048;-51
2024/01/18 08:54:58;;;;;;;7.85;5.47;;;;;;;17.53;30.41;99649.81;4230504;28;20059;-53
2024/01/18 08:56:59;;;;;;;8.07;5.00;;;;;;;17.51;30.29;99657.91;4230731;28;20050;-49
2024/01/18 08:59:01;;;;;;;8.30;4.95;;;;;;;17.51;30.33;99662.38;4230709;28;20052;-50
2024/01/18 09:01:03;;;;;;;6.68;4.70;;;;;;;17.50;30.46;99672.16;4230976;28;20118;-52
2024/01/18 09:03:05;;;;;;;7.35;4.70;;;;;;;17.54;30.28;99678.09;4230940;28;20498;-49
2024/01/18 09:05:07;;;;;;;7.35;4.68;;;;;;;17.58;30.19;99678.69;4230863;28;20512;-53
2024/01/18 09:07:08;;;;;;;6.72;4.70;;;;;;;17.60;30.45;99687.38;4230766;28;20036;-51
2024/01/18 09:09:11;;;;;;;7.20;5.03;;;;;;;17.61;30.21;99699.72;4230448;28;20047;-51
2024/01/18 09:11:13;;;;;;;6.68;4.57;;;;;;;17.61;30.23;99700.53;4230841;28;20048;-53
2024/01/18 09:13:15;;;;;;;;;;;;;;;17.62;30.40;99699.56;4231220;28;20047;-49
2024/01/18 09:15:20;;;;;;;8.40;4.85;;;;;;;17.62;30.16;99714.66;4230510;28;20294;-49
2024/01/18 09:17:22;;;;;;;8.55;5.00;;;;;;;17.65;30.27;99727.72;4230533;28;20050;-50
2024/01/18 09:19:24;;;;;;;7.35;5.30;;;;;;;17.64;30.25;99741.97;4230368;28;20131;-50
2024/01/18 09:21:26;;;;;;;8.35;4.70;;;;;;;17.62;30.20;99742.13;4230729;28;20044;-51
2024/01/18 09:23:28;;;;;;;;;;;;;;;17.62;30.27;99747.44;4229399;28;20040;-52
2024/01/18 09:25:29;;;;;;;7.22;4.82;;;;;;;17.62;30.36;99750.09;4229483;28;19942;-52
2024/01/18 09:27:31;;;;;;;7.70;5.05;;;;;;;17.64;30.21;99756.09;4230451;28;20047;-50
2024/01/18 09:29:32;;;;;;;6.63;4.43;;;;;;;17.68;30.24;99757.56;4230479;28;20040;-52
2024/01/18 09:31:34;;;;;;;7.28;4.57;;;;;;;17.71;30.06;99765.28;4230627;28;20059;-52
2024/01/18 09:33:43;;;;;;;7.30;4.80;;;;;;;17.75;30.27;99773.03;4230674;28;20040;-53
2024/01/18 09:35:45;;;;;;;6.57;4.55;;;;;;;17.76;30.28;99775.56;4230401;28;20104;-48
2024/01/18 09:37:47;;;;;;;7.57;4.97;;;;;;;17.76;30.22;99780.88;4230441;28;20047;-49